sensor_id;sensor_type;location;lat;lon;timestamp;pressure;altitude;pressure_sealevel;temperature;humidity
70982;BME280;58640;51.320;9.456;2022-07-12T00:01:34;100226.53;;;16.26;85.73
70982;BME280;58640;51.320;9.456;2022-07-12T00:03:59;100226.09;;;16.23;85.74
70982;BME280;58640;51.320;9.456;2022-07-12T00:06:25;100224.41;;;16.22;85.97
70982;BME280;58640;51.320;9.456;2022-07-12T00:08:50;100223.94;;;16.18;86.23
70982;BME280;58640;51.320;9.456;2022-07-12T00:11:15;100225.00;;;16.17;86.41
70982;BME280;58640;51.320;9.456;2022-07-12T00:13:41;100232.47;;;16.15;85.97
70982;BME280;58640;51.320;9.456;2022-07-12T00:16:07;100231.66;;;16.15;86.04
70982;BME280;58640;51.320;9.456;2022-07-12T00:18:32;100220.16;;;16.13;86.32
70982;BME280;58640;51.320;9.456;2022-07-12T00:20:58;100217.81;;;16.09;86.46
70982;BME280;58640;51.320;9.456;2022-07-12T00:23:23;100222.59;;;16.07;86.50
70982;BME280;58640;51.320;9.456;2022-07-12T00:25:49;100226.53;;;16.05;86.75
70982;BME280;58640;51.320;9.456;2022-07-12T00:28:14;100228.13;;;15.99;87.10
70982;BME280;58640;51.320;9.456;2022-07-12T00:30:40;100228.31;;;15.98;87.01
70982;BME280;58640;51.320;9.456;2022-07-12T00:33:06;100222.63;;;15.93;87.16
70982;BME280;58640;51.320;9.456;2022-07-12T00:35:31;100218.63;;;15.89;87.53
70982;BME280;58640;51.320;9.456;2022-07-12T00:37:56;100212.75;;;15.85;87.24
70982;BME280;58640;51.320;9.456;2022-07-12T00:40:22;100213.94;;;15.83;86.92
70982;BME280;58640;51.320;9.456;2022-07-12T00:42:47;100212.84;;;15.77;87.35
70982;BME280;58640;51.320;9.456;2022-07-12T00:45:13;100211.72;;;15.72;87.59
70982;BME280;58640;51.320;9.456;2022-07-12T00:47:40;100210.81;;;15.65;87.28
70982;BME280;58640;51.320;9.456;2022-07-12T00:52:37;100218.19;;;15.56;87.61
70982;BME280;58640;51.320;9.456;2022-07-12T00:55:04;100207.75;;;15.53;87.67
70982;BME280;58640;51.320;9.456;2022-07-12T00:57:31;100208.13;;;15.50;87.76
70982;BME280;58640;51.320;9.456;2022-07-12T00:59:57;100202.41;;;15.45;87.83
70982;BME280;58640;51.320;9.456;2022-07-12T01:02:22;100201.13;;;15.41;87.70
70982;BME280;58640;51.320;9.456;2022-07-12T01:04:48;100203.19;;;15.39;87.68
70982;BME280;58640;51.320;9.456;2022-07-12T01:07:15;100215.69;;;15.40;87.60
70982;BME280;58640;51.320;9.456;2022-07-12T01:09:41;100218.59;;;15.39;87.51
70982;BME280;58640;51.320;9.456;2022-07-12T01:12:07;100217.41;;;15.41;87.42
70982;BME280;58640;51.320;9.456;2022-07-12T01:14:34;100209.25;;;15.41;87.56
70982;BME280;58640;51.320;9.456;2022-07-12T01:17:00;100220.44;;;15.38;87.59
70982;BME280;58640;51.320;9.456;2022-07-12T01:19:26;100210.63;;;15.37;87.38
70982;BME280;58640;51.320;9.456;2022-07-12T01:21:53;100211.84;;;15.35;87.67
70982;BME280;58640;51.320;9.456;2022-07-12T01:24:18;100222.69;;;15.35;87.51
70982;BME280;58640;51.320;9.456;2022-07-12T01:26:44;100212.03;;;15.33;87.37
70982;BME280;58640;51.320;9.456;2022-07-12T01:29:10;100222.03;;;15.33;87.13
70982;BME280;58640;51.320;9.456;2022-07-12T01:31:36;100218.28;;;15.34;87.44
70982;BME280;58640;51.320;9.456;2022-07-12T01:34:03;100222.88;;;15.33;87.38
70982;BME280;58640;51.320;9.456;2022-07-12T01:36:29;100210.72;;;15.29;87.25
70982;BME280;58640;51.320;9.456;2022-07-12T01:38:55;100215.03;;;15.24;87.49
70982;BME280;58640;51.320;9.456;2022-07-12T01:41:20;100212.22;;;15.46;86.26
70982;BME280;58640;51.320;9.456;2022-07-12T01:43:47;100208.09;;;15.36;86.08
70982;BME280;58640;51.320;9.456;2022-07-12T01:46:12;100207.56;;;15.40;85.85
70982;BME280;58640;51.320;9.456;2022-07-12T01:48:37;100206.03;;;15.38;85.77
70982;BME280;58640;51.320;9.456;2022-07-12T01:51:03;100212.94;;;15.26;86.14
70982;BME280;58640;51.320;9.456;2022-07-12T01:53:28;100211.41;;;15.46;84.79
70982;BME280;58640;51.320;9.456;2022-07-12T01:55:54;100215.03;;;15.38;85.27
70982;BME280;58640;51.320;9.456;2022-07-12T01:58:19;100213.25;;;15.45;84.77
70982;BME280;58640;51.320;9.456;2022-07-12T02:00:45;100202.03;;;15.48;84.57
70982;BME280;58640;51.320;9.456;2022-07-12T02:03:17;100202.31;;;15.53;84.44
70982;BME280;58640;51.320;9.456;2022-07-12T02:05:42;100201.91;;;15.71;83.42
70982;BME280;58640;51.320;9.456;2022-07-12T02:08:08;100201.84;;;15.50;84.46
70982;BME280;58640;51.320;9.456;2022-07-12T02:10:33;100199.50;;;15.47;84.67
70982;BME280;58640;51.320;9.456;2022-07-12T02:13:02;100203.25;;;15.46;84.83
70982;BME280;58640;51.320;9.456;2022-07-12T02:15:28;100197.25;;;15.36;85.44
70982;BME280;58640;51.320;9.456;2022-07-12T02:17:53;100198.81;;;15.30;85.65
70982;BME280;58640;51.320;9.456;2022-07-12T02:20:18;100192.13;;;15.26;85.93
70982;BME280;58640;51.320;9.456;2022-07-12T02:22:44;100185.38;;;15.22;86.55
70982;BME280;58640;51.320;9.456;2022-07-12T02:25:09;100183.03;;;15.19;86.26
70982;BME280;58640;51.320;9.456;2022-07-12T02:27:35;100190.25;;;15.12;86.75
70982;BME280;58640;51.320;9.456;2022-07-12T02:30:00;100184.25;;;15.02;86.82
70982;BME280;58640;51.320;9.456;2022-07-12T02:32:26;100194.16;;;14.95;87.51
70982;BME280;58640;51.320;9.456;2022-07-12T02:34:52;100195.75;;;14.90;87.70
70982;BME280;58640;51.320;9.456;2022-07-12T02:37:17;100198.53;;;14.82;88.10
70982;BME280;58640;51.320;9.456;2022-07-12T02:39:42;100196.56;;;14.76;88.32
70982;BME280;58640;51.320;9.456;2022-07-12T02:42:08;100196.75;;;14.74;88.32
70982;BME280;58640;51.320;9.456;2022-07-12T02:44:33;100194.56;;;14.69;88.24
70982;BME280;58640;51.320;9.456;2022-07-12T02:46:59;100194.75;;;14.68;88.20
70982;BME280;58640;51.320;9.456;2022-07-12T02:49:25;100193.28;;;14.65;88.27
70982;BME280;58640;51.320;9.456;2022-07-12T02:51:51;100201.94;;;14.61;88.30
70982;BME280;58640;51.320;9.456;2022-07-12T02:54:16;100204.47;;;14.62;88.50
70982;BME280;58640;51.320;9.456;2022-07-12T02:56:41;100211.19;;;14.66;88.36
70982;BME280;58640;51.320;9.456;2022-07-12T02:59:07;100206.25;;;14.70;88.29
70982;BME280;58640;51.320;9.456;2022-07-12T03:01:32;100206.91;;;14.72;88.35
70982;BME280;58640;51.320;9.456;2022-07-12T03:03:57;100203.84;;;14.75;88.36
70982;BME280;58640;51.320;9.456;2022-07-12T03:06:23;100207.22;;;14.77;88.26
70982;BME280;58640;51.320;9.456;2022-07-12T03:08:48;100215.16;;;14.79;89.08
70982;BME280;58640;51.320;9.456;2022-07-12T03:11:13;100215.97;;;14.79;89.11
70982;BME280;58640;51.320;9.456;2022-07-12T03:13:39;100213.56;;;14.84;88.79
70982;BME280;58640;51.320;9.456;2022-07-12T03:16:05;100220.97;;;15.05;87.45
70982;BME280;58640;51.320;9.456;2022-07-12T03:18:30;100222.84;;;15.04;87.13
70982;BME280;58640;51.320;9.456;2022-07-12T03:20:56;100222.94;;;14.96;87.50
70982;BME280;58640;51.320;9.456;2022-07-12T03:23:21;100213.66;;;14.91;87.76
70982;BME280;58640;51.320;9.456;2022-07-12T03:25:47;100226.19;;;14.92;87.92
70982;BME280;58640;51.320;9.456;2022-07-12T03:28:12;100226.56;;;14.89;88.02
70982;BME280;58640;51.320;9.456;2022-07-12T03:30:38;100230.78;;;14.91;87.89
70982;BME280;58640;51.320;9.456;2022-07-12T03:33:03;100225.91;;;14.87;87.86
70982;BME280;58640;51.320;9.456;2022-07-12T03:35:29;100233.84;;;14.88;87.51
70982;BME280;58640;51.320;9.456;2022-07-12T03:37:54;100235.59;;;14.81;87.91
70982;BME280;58640;51.320;9.456;2022-07-12T03:40:20;100239.16;;;14.82;87.65
70982;BME280;58640;51.320;9.456;2022-07-12T03:42:46;100232.50;;;14.84;87.69
70982;BME280;58640;51.320;9.456;2022-07-12T03:45:13;100242.81;;;14.89;87.37
70982;BME280;58640;51.320;9.456;2022-07-12T03:47:39;100246.72;;;14.86;87.49
70982;BME280;58640;51.320;9.456;2022-07-12T03:50:06;100253.66;;;14.89;87.01
70982;BME280;58640;51.320;9.456;2022-07-12T03:52:32;100250.97;;;14.89;87.54
70982;BME280;58640;51.320;9.456;2022-07-12T03:54:58;100256.63;;;14.94;87.19
70982;BME280;58640;51.320;9.456;2022-07-12T03:57:24;100249.16;;;14.96;87.28
70982;BME280;58640;51.320;9.456;2022-07-12T03:59:51;100256.75;;;15.00;87.06
70982;BME280;58640;51.320;9.456;2022-07-12T04:02:17;100262.16;;;15.00;87.57
70982;BME280;58640;51.320;9.456;2022-07-12T04:04:43;100261.72;;;15.11;86.67
70982;BME280;58640;51.320;9.456;2022-07-12T04:07:08;100263.97;;;15.08;86.72
70982;BME280;58640;51.320;9.456;2022-07-12T04:09:34;100262.94;;;15.09;86.95
70982;BME280;58640;51.320;9.456;2022-07-12T04:11:59;100273.59;;;15.10;87.27
70982;BME280;58640;51.320;9.456;2022-07-12T04:14:24;100274.06;;;15.14;87.21
70982;BME280;58640;51.320;9.456;2022-07-12T04:16:50;100272.19;;;15.14;87.14
70982;BME280;58640;51.320;9.456;2022-07-12T04:19:15;100274.72;;;15.16;87.27
70982;BME280;58640;51.320;9.456;2022-07-12T04:21:41;100280.59;;;15.19;87.19
70982;BME280;58640;51.320;9.456;2022-07-12T04:24:06;100278.19;;;15.24;86.96
70982;BME280;58640;51.320;9.456;2022-07-12T04:26:32;100279.50;;;15.28;86.80
70982;BME280;58640;51.320;9.456;2022-07-12T04:28:57;100283.53;;;15.32;86.74
70982;BME280;58640;51.320;9.456;2022-07-12T04:31:23;100279.81;;;15.33;86.63
70982;BME280;58640;51.320;9.456;2022-07-12T04:33:50;100284.19;;;15.34;86.62
70982;BME280;58640;51.320;9.456;2022-07-12T04:36:15;100281.09;;;15.37;86.71
70982;BME280;58640;51.320;9.456;2022-07-12T04:38:41;100281.94;;;15.38;86.35
70982;BME280;58640;51.320;9.456;2022-07-12T04:41:06;100286.19;;;15.40;86.51
70982;BME280;58640;51.320;9.456;2022-07-12T04:43:32;100284.97;;;15.43;86.23
70982;BME280;58640;51.320;9.456;2022-07-12T04:46:05;100291.88;;;15.45;86.42
70982;BME280;58640;51.320;9.456;2022-07-12T04:48:31;100294.41;;;15.47;86.26
70982;BME280;58640;51.320;9.456;2022-07-12T04:50:56;100291.13;;;15.51;86.17
70982;BME280;58640;51.320;9.456;2022-07-12T04:53:22;100286.09;;;15.63;85.71
70982;BME280;58640;51.320;9.456;2022-07-12T04:55:47;100290.47;;;15.64;85.62
70982;BME280;58640;51.320;9.456;2022-07-12T04:58:13;100295.09;;;15.63;85.24
70982;BME280;58640;51.320;9.456;2022-07-12T05:00:38;100296.28;;;15.61;85.71
70982;BME280;58640;51.320;9.456;2022-07-12T05:03:03;100292.38;;;15.63;85.76
70982;BME280;58640;51.320;9.456;2022-07-12T05:05:29;100300.94;;;15.67;85.95
70982;BME280;58640;51.320;9.456;2022-07-12T05:07:54;100299.66;;;15.63;85.73
70982;BME280;58640;51.320;9.456;2022-07-12T05:10:19;100299.28;;;15.66;85.91
70982;BME280;58640;51.320;9.456;2022-07-12T05:12:45;100316.41;;;15.66;85.58
70982;BME280;58640;51.320;9.456;2022-07-12T05:15:10;100320.88;;;15.59;86.01
70982;BME280;58640;51.320;9.456;2022-07-12T05:17:35;100323.22;;;15.62;85.90
70982;BME280;58640;51.320;9.456;2022-07-12T05:20:01;100331.81;;;15.66;86.28
70982;BME280;58640;51.320;9.456;2022-07-12T05:22:26;100323.50;;;15.67;85.76
70982;BME280;58640;51.320;9.456;2022-07-12T05:24:51;100321.91;;;15.73;85.78
70982;BME280;58640;51.320;9.456;2022-07-12T05:27:17;100318.72;;;15.69;85.97
70982;BME280;58640;51.320;9.456;2022-07-12T05:29:42;100319.66;;;15.76;85.67
70982;BME280;58640;51.320;9.456;2022-07-12T05:32:08;100325.84;;;15.85;84.91
70982;BME280;58640;51.320;9.456;2022-07-12T05:34:33;100336.88;;;15.83;84.77
70982;BME280;58640;51.320;9.456;2022-07-12T05:36:59;100330.41;;;15.84;84.96
70982;BME280;58640;51.320;9.456;2022-07-12T05:39:24;100340.81;;;15.81;84.77
70982;BME280;58640;51.320;9.456;2022-07-12T05:41:49;100341.00;;;15.79;85.43
70982;BME280;58640;51.320;9.456;2022-07-12T05:44:15;100338.28;;;15.79;85.04
70982;BME280;58640;51.320;9.456;2022-07-12T05:46:47;100335.47;;;15.73;85.76
70982;BME280;58640;51.320;9.456;2022-07-12T05:49:12;100341.81;;;15.80;85.45
70982;BME280;58640;51.320;9.456;2022-07-12T05:51:37;100339.78;;;15.82;85.42
70982;BME280;58640;51.320;9.456;2022-07-12T05:54:21;100336.03;;;15.83;85.56
70982;BME280;58640;51.320;9.456;2022-07-12T05:56:46;100336.31;;;15.88;84.88
70982;BME280;58640;51.320;9.456;2022-07-12T05:59:12;100333.22;;;15.91;84.85
70982;BME280;58640;51.320;9.456;2022-07-12T06:01:37;100337.81;;;15.90;84.96
70982;BME280;58640;51.320;9.456;2022-07-12T06:04:03;100347.16;;;16.02;84.37
70982;BME280;58640;51.320;9.456;2022-07-12T06:06:28;100345.00;;;15.98;84.60
70982;BME280;58640;51.320;9.456;2022-07-12T06:08:53;100348.84;;;16.03;84.85
70982;BME280;58640;51.320;9.456;2022-07-12T06:11:19;100343.78;;;16.00;84.87
70982;BME280;58640;51.320;9.456;2022-07-12T06:13:44;100344.06;;;16.05;84.89
70982;BME280;58640;51.320;9.456;2022-07-12T06:16:09;100344.34;;;16.10;84.29
70982;BME280;58640;51.320;9.456;2022-07-12T06:18:37;100350.16;;;16.07;84.36
70982;BME280;58640;51.320;9.456;2022-07-12T06:21:02;100356.13;;;16.18;84.00
70982;BME280;58640;51.320;9.456;2022-07-12T06:23:28;100356.13;;;16.18;84.60
70982;BME280;58640;51.320;9.456;2022-07-12T06:25:53;100354.59;;;16.30;84.49
70982;BME280;58640;51.320;9.456;2022-07-12T06:28:19;100357.69;;;16.56;82.91
70982;BME280;58640;51.320;9.456;2022-07-12T06:30:44;100351.16;;;16.71;82.19
70982;BME280;58640;51.320;9.456;2022-07-12T06:33:09;100349.97;;;16.80;81.42
70982;BME280;58640;51.320;9.456;2022-07-12T06:35:35;100348.50;;;16.99;80.46
70982;BME280;58640;51.320;9.456;2022-07-12T06:38:00;100347.84;;;17.18;80.37
70982;BME280;58640;51.320;9.456;2022-07-12T06:40:26;100349.88;;;17.37;79.36
70982;BME280;58640;51.320;9.456;2022-07-12T06:42:51;100353.50;;;17.72;78.64
70982;BME280;58640;51.320;9.456;2022-07-12T06:45:17;100350.06;;;17.91;77.82
70982;BME280;58640;51.320;9.456;2022-07-12T06:47:43;100359.78;;;18.06;77.18
70982;BME280;58640;51.320;9.456;2022-07-12T06:50:08;100358.84;;;18.20;76.17
70982;BME280;58640;51.320;9.456;2022-07-12T06:52:34;100343.22;;;19.48;71.76
70982;BME280;58640;51.320;9.456;2022-07-12T06:55:00;100348.22;;;19.25;72.11
70982;BME280;58640;51.320;9.456;2022-07-12T06:57:25;100346.72;;;19.03;72.86
70982;BME280;58640;51.320;9.456;2022-07-12T06:59:55;100354.06;;;19.09;72.98
70982;BME280;58640;51.320;9.456;2022-07-12T07:02:21;100346.09;;;18.81;73.50
70982;BME280;58640;51.320;9.456;2022-07-12T07:04:47;100354.28;;;19.07;72.79
70982;BME280;58640;51.320;9.456;2022-07-12T07:07:12;100354.44;;;18.86;73.02
70982;BME280;58640;51.320;9.456;2022-07-12T07:09:37;100348.59;;;18.76;72.15
70982;BME280;58640;51.320;9.456;2022-07-12T07:12:03;100350.44;;;18.69;73.20
70982;BME280;58640;51.320;9.456;2022-07-12T07:14:28;100351.19;;;19.36;70.23
70982;BME280;58640;51.320;9.456;2022-07-12T07:16:54;100340.69;;;19.40;69.83
70982;BME280;58640;51.320;9.456;2022-07-12T07:19:19;100342.44;;;20.24;68.36
70982;BME280;58640;51.320;9.456;2022-07-12T07:21:48;100348.16;;;21.53;63.69
70982;BME280;58640;51.320;9.456;2022-07-12T07:24:13;100351.28;;;21.75;61.31
70982;BME280;58640;51.320;9.456;2022-07-12T07:26:38;100353.69;;;21.47;61.12
70982;BME280;58640;51.320;9.456;2022-07-12T07:29:04;100341.78;;;21.10;61.66
70982;BME280;58640;51.320;9.456;2022-07-12T07:31:48;100347.41;;;20.78;62.67
70982;BME280;58640;51.320;9.456;2022-07-12T07:34:13;100349.72;;;20.43;62.72
70982;BME280;58640;51.320;9.456;2022-07-12T07:36:38;100351.09;;;19.95;63.72
70982;BME280;58640;51.320;9.456;2022-07-12T07:39:04;100350.31;;;19.68;65.14
70982;BME280;58640;51.320;9.456;2022-07-12T07:41:29;100353.47;;;19.78;65.18
70982;BME280;58640;51.320;9.456;2022-07-12T07:43:55;100354.91;;;19.87;64.06
70982;BME280;58640;51.320;9.456;2022-07-12T07:46:20;100344.25;;;19.53;62.32
70982;BME280;58640;51.320;9.456;2022-07-12T07:48:46;100348.03;;;19.39;64.06
70982;BME280;58640;51.320;9.456;2022-07-12T07:51:11;100354.56;;;19.45;64.80
70982;BME280;58640;51.320;9.456;2022-07-12T07:53:36;100360.00;;;19.32;65.82
70982;BME280;58640;51.320;9.456;2022-07-12T07:56:02;100350.34;;;19.36;64.50
70982;BME280;58640;51.320;9.456;2022-07-12T07:58:27;100350.75;;;19.52;63.62
70982;BME280;58640;51.320;9.456;2022-07-12T08:00:53;100350.94;;;19.77;63.07
70982;BME280;58640;51.320;9.456;2022-07-12T08:03:20;100353.69;;;19.57;64.45
70982;BME280;58640;51.320;9.456;2022-07-12T08:05:46;100356.19;;;19.85;63.33
70982;BME280;58640;51.320;9.456;2022-07-12T08:08:11;100358.75;;;20.44;61.90
70982;BME280;58640;51.320;9.456;2022-07-12T08:10:37;100356.53;;;21.34;59.48
70982;BME280;58640;51.320;9.456;2022-07-12T08:13:02;100355.97;;;21.74;56.91
70982;BME280;58640;51.320;9.456;2022-07-12T08:15:28;100358.53;;;22.12;56.51
70982;BME280;58640;51.320;9.456;2022-07-12T08:17:53;100350.47;;;22.35;54.93
70982;BME280;58640;51.320;9.456;2022-07-12T08:20:19;100351.59;;;22.46;53.46
70982;BME280;58640;51.320;9.456;2022-07-12T08:22:45;100356.47;;;22.62;53.63
70982;BME280;58640;51.320;9.456;2022-07-12T08:25:14;100352.28;;;22.59;50.99
70982;BME280;58640;51.320;9.456;2022-07-12T08:27:40;100356.56;;;22.55;51.62
70982;BME280;58640;51.320;9.456;2022-07-12T08:30:06;100359.69;;;22.59;51.66
70982;BME280;58640;51.320;9.456;2022-07-12T08:32:31;100349.63;;;23.12;49.80
70982;BME280;58640;51.320;9.456;2022-07-12T08:34:57;100362.28;;;24.00;48.48
70982;BME280;58640;51.320;9.456;2022-07-12T08:37:22;100347.06;;;23.40;48.83
70982;BME280;58640;51.320;9.456;2022-07-12T08:39:47;100341.50;;;23.58;47.59
70982;BME280;58640;51.320;9.456;2022-07-12T08:42:17;100346.97;;;23.70;48.54
70982;BME280;58640;51.320;9.456;2022-07-12T08:44:44;100357.97;;;23.70;48.56
70982;BME280;58640;51.320;9.456;2022-07-12T08:47:10;100354.28;;;23.64;46.42
70982;BME280;58640;51.320;9.456;2022-07-12T08:49:36;100353.19;;;23.65;46.70
70982;BME280;58640;51.320;9.456;2022-07-12T08:52:26;100355.94;;;23.77;48.18
70982;BME280;58640;51.320;9.456;2022-07-12T08:54:52;100351.66;;;24.04;47.25
70982;BME280;58640;51.320;9.456;2022-07-12T08:57:30;100360.38;;;24.01;47.07
70982;BME280;58640;51.320;9.456;2022-07-12T09:00:00;100360.38;;;24.01;46.11
70982;BME280;58640;51.320;9.456;2022-07-12T09:02:25;100361.69;;;24.10;44.98
70982;BME280;58640;51.320;9.456;2022-07-12T09:05:07;100356.56;;;24.02;47.13
70982;BME280;58640;51.320;9.456;2022-07-12T09:07:36;100363.22;;;24.17;47.37
70982;BME280;58640;51.320;9.456;2022-07-12T09:10:09;100355.06;;;24.34;46.81
70982;BME280;58640;51.320;9.456;2022-07-12T09:12:36;100352.09;;;24.24;45.41
70982;BME280;58640;51.320;9.456;2022-07-12T09:15:16;100359.91;;;24.67;45.04
70982;BME280;58640;51.320;9.456;2022-07-12T09:18:07;100341.41;;;24.50;44.65
70982;BME280;58640;51.320;9.456;2022-07-12T09:20:42;100339.00;;;24.54;45.60
70982;BME280;58640;51.320;9.456;2022-07-12T09:23:11;100346.84;;;24.62;45.52
70982;BME280;58640;51.320;9.456;2022-07-12T09:25:38;100342.06;;;24.06;45.53
70982;BME280;58640;51.320;9.456;2022-07-12T09:28:06;100335.31;;;24.37;44.97
70982;BME280;58640;51.320;9.456;2022-07-12T09:30:32;100334.41;;;24.71;43.60
70982;BME280;58640;51.320;9.456;2022-07-12T09:33:03;100340.66;;;24.55;43.98
70982;BME280;58640;51.320;9.456;2022-07-12T09:38:50;100337.38;;;24.81;43.03
70982;BME280;58640;51.320;9.456;2022-07-12T09:41:19;100332.97;;;24.69;43.48
70982;BME280;58640;51.320;9.456;2022-07-12T09:43:45;100334.06;;;24.68;43.50
70982;BME280;58640;51.320;9.456;2022-07-12T09:46:10;100332.16;;;24.57;43.85
70982;BME280;58640;51.320;9.456;2022-07-12T09:48:40;100337.66;;;24.68;44.44
70982;BME280;58640;51.320;9.456;2022-07-12T09:51:08;100344.06;;;24.74;44.76
70982;BME280;58640;51.320;9.456;2022-07-12T09:53:47;100351.66;;;24.95;44.91
70982;BME280;58640;51.320;9.456;2022-07-12T09:56:14;100341.34;;;25.02;43.82
70982;BME280;58640;51.320;9.456;2022-07-12T09:58:50;100340.97;;;24.98;43.61
70982;BME280;58640;51.320;9.456;2022-07-12T10:01:17;100332.16;;;25.13;42.55
70982;BME280;58640;51.320;9.456;2022-07-12T10:03:43;100332.63;;;24.93;43.69
70982;BME280;58640;51.320;9.456;2022-07-12T10:06:11;100332.97;;;24.97;43.70
70982;BME280;58640;51.320;9.456;2022-07-12T10:08:36;100325.78;;;24.96;45.19
70982;BME280;58640;51.320;9.456;2022-07-12T10:11:02;100330.38;;;25.35;43.19
70982;BME280;58640;51.320;9.456;2022-07-12T10:13:28;100320.59;;;25.60;41.68
70982;BME280;58640;51.320;9.456;2022-07-12T10:16:00;100329.66;;;25.28;41.87
70982;BME280;58640;51.320;9.456;2022-07-12T10:18:29;100331.53;;;25.39;41.22
70982;BME280;58640;51.320;9.456;2022-07-12T10:20:55;100331.41;;;25.17;42.15
70982;BME280;58640;51.320;9.456;2022-07-12T10:23:36;100323.56;;;25.09;41.64
70982;BME280;58640;51.320;9.456;2022-07-12T10:26:36;100323.50;;;25.37;41.90
70982;BME280;58640;51.320;9.456;2022-07-12T10:29:06;100330.38;;;25.35;42.63
70982;BME280;58640;51.320;9.456;2022-07-12T10:31:37;100329.28;;;25.69;40.67
70982;BME280;58640;51.320;9.456;2022-07-12T10:34:23;100326.88;;;26.11;40.20
70982;BME280;58640;51.320;9.456;2022-07-12T10:39:21;100324.31;;;26.47;39.54
70982;BME280;58640;51.320;9.456;2022-07-12T10:44:38;100322.53;;;26.15;41.13
70982;BME280;58640;51.320;9.456;2022-07-12T10:47:05;100324.50;;;26.19;40.67
70982;BME280;58640;51.320;9.456;2022-07-12T10:49:33;100322.38;;;26.48;39.03
70982;BME280;58640;51.320;9.456;2022-07-12T10:54:40;100314.66;;;26.23;38.61
70982;BME280;58640;51.320;9.456;2022-07-12T10:57:06;100302.25;;;26.26;38.51
70982;BME280;58640;51.320;9.456;2022-07-12T10:59:35;100298.22;;;26.12;37.58
70982;BME280;58640;51.320;9.456;2022-07-12T11:02:01;100302.22;;;26.04;38.51
70982;BME280;58640;51.320;9.456;2022-07-12T11:04:27;100290.47;;;26.09;38.00
70982;BME280;58640;51.320;9.456;2022-07-12T11:06:54;100288.25;;;26.11;38.60
70982;BME280;58640;51.320;9.456;2022-07-12T11:09:24;100291.56;;;26.29;39.09
70982;BME280;58640;51.320;9.456;2022-07-12T11:11:51;100293.03;;;26.15;37.43
70982;BME280;58640;51.320;9.456;2022-07-12T11:14:27;100296.47;;;26.27;36.25
70982;BME280;58640;51.320;9.456;2022-07-12T11:16:54;100296.09;;;25.80;36.32
70982;BME280;58640;51.320;9.456;2022-07-12T11:19:23;100294.59;;;25.89;36.72
70982;BME280;58640;51.320;9.456;2022-07-12T11:21:50;100293.34;;;25.80;36.04
70982;BME280;58640;51.320;9.456;2022-07-12T11:26:48;100275.00;;;26.08;37.89
70982;BME280;58640;51.320;9.456;2022-07-12T11:29:14;100276.75;;;25.97;37.01
70982;BME280;58640;51.320;9.456;2022-07-12T11:31:39;100274.97;;;25.69;36.53
70982;BME280;58640;51.320;9.456;2022-07-12T11:34:04;100272.28;;;25.53;37.47
70982;BME280;58640;51.320;9.456;2022-07-12T11:36:30;100266.91;;;25.30;38.12
70982;BME280;58640;51.320;9.456;2022-07-12T11:38:57;100259.75;;;25.29;37.08
70982;BME280;58640;51.320;9.456;2022-07-12T11:41:22;100260.72;;;25.23;37.65
70982;BME280;58640;51.320;9.456;2022-07-12T11:43:49;100249.97;;;25.21;36.00
70982;BME280;58640;51.320;9.456;2022-07-12T11:46:15;100252.97;;;25.20;35.64
70982;BME280;58640;51.320;9.456;2022-07-12T11:48:42;100257.16;;;25.06;36.68
70982;BME280;58640;51.320;9.456;2022-07-12T11:51:09;100242.88;;;25.09;35.44
70982;BME280;58640;51.320;9.456;2022-07-12T11:53:36;100242.38;;;25.12;34.92
70982;BME280;58640;51.320;9.456;2022-07-12T11:56:04;100244.97;;;25.02;36.38
70982;BME280;58640;51.320;9.456;2022-07-12T11:58:30;100247.03;;;24.95;36.16
70982;BME280;58640;51.320;9.456;2022-07-12T12:00:57;100244.53;;;24.93;36.19
70982;BME280;58640;51.320;9.456;2022-07-12T12:03:23;100233.78;;;24.92;36.94
70982;BME280;58640;51.320;9.456;2022-07-12T12:05:53;100243.56;;;24.83;37.20
70982;BME280;58640;51.320;9.456;2022-07-12T12:08:19;100231.69;;;24.82;36.93
70982;BME280;58640;51.320;9.456;2022-07-12T12:10:58;100231.69;;;24.82;37.28
70982;BME280;58640;51.320;9.456;2022-07-12T12:13:26;100234.28;;;24.89;36.69
70982;BME280;58640;51.320;9.456;2022-07-12T12:15:56;100232.53;;;24.83;35.27
70982;BME280;58640;51.320;9.456;2022-07-12T12:18:33;100234.69;;;24.81;34.38
70982;BME280;58640;51.320;9.456;2022-07-12T12:21:05;100227.69;;;24.73;35.81
70982;BME280;58640;51.320;9.456;2022-07-12T12:23:31;100224.59;;;24.70;34.00
70982;BME280;58640;51.320;9.456;2022-07-12T12:28:49;100209.09;;;24.80;35.13
70982;BME280;58640;51.320;9.456;2022-07-12T12:31:16;100213.75;;;24.80;35.19
70982;BME280;58640;51.320;9.456;2022-07-12T12:33:44;100208.34;;;24.68;35.59
70982;BME280;58640;51.320;9.456;2022-07-12T12:36:29;100207.84;;;24.71;34.74
70982;BME280;58640;51.320;9.456;2022-07-12T12:39:01;100191.47;;;24.65;35.44
70982;BME280;58640;51.320;9.456;2022-07-12T12:41:28;100191.28;;;24.54;35.70
70982;BME280;58640;51.320;9.456;2022-07-12T12:44:01;100198.53;;;24.61;36.59
70982;BME280;58640;51.320;9.456;2022-07-12T12:46:46;100186.66;;;24.72;35.94
70982;BME280;58640;51.320;9.456;2022-07-12T12:49:15;100189.16;;;24.73;35.63
70982;BME280;58640;51.320;9.456;2022-07-12T12:51:55;100192.06;;;24.83;37.42
70982;BME280;58640;51.320;9.456;2022-07-12T12:54:36;100188.31;;;24.89;37.53
70982;BME280;58640;51.320;9.456;2022-07-12T12:57:04;100185.00;;;24.87;36.64
70982;BME280;58640;51.320;9.456;2022-07-12T12:59:29;100191.41;;;24.93;37.41
70982;BME280;58640;51.320;9.456;2022-07-12T13:01:55;100196.50;;;25.01;36.12
70982;BME280;58640;51.320;9.456;2022-07-12T13:04:20;100195.44;;;25.02;36.87
70982;BME280;58640;51.320;9.456;2022-07-12T13:06:46;100188.81;;;25.03;36.97
70982;BME280;58640;51.320;9.456;2022-07-12T13:09:11;100193.41;;;24.97;36.43